createdAt,value
2019-05-09T00:00:14.266Z,9.60
2019-05-09T00:01:14.300Z,9.66
2019-05-09T00:02:13.864Z,9.56
2019-05-09T00:03:13.962Z,9.58
2019-05-09T00:04:14.034Z,9.61
2019-05-09T00:05:13.943Z,9.58
2019-05-09T00:06:13.845Z,9.64
2019-05-09T00:07:14.051Z,9.66
2019-05-09T00:08:14.044Z,9.63
2019-05-09T00:09:13.947Z,9.60
2019-05-09T00:10:14.225Z,9.53
2019-05-09T00:11:14.487Z,9.45
2019-05-09T00:12:14.172Z,9.52
2019-05-09T00:13:13.860Z,9.61
2019-05-09T00:14:13.707Z,9.50
2019-05-09T00:15:13.729Z,9.52
2019-05-09T00:16:14.490Z,9.49
2019-05-09T00:17:14.061Z,9.67
2019-05-09T00:18:14.264Z,9.50
2019-05-09T00:19:13.655Z,9.49
2019-05-09T00:20:13.679Z,9.49
2019-05-09T00:21:13.543Z,9.56
2019-05-09T00:22:13.856Z,9.56
2019-05-09T00:23:13.685Z,9.57
2019-05-09T00:24:14.020Z,9.61
2019-05-09T00:25:13.414Z,9.56
2019-05-09T00:26:13.580Z,9.49
2019-05-09T00:27:14.179Z,9.56
2019-05-09T00:28:13.652Z,9.48
2019-05-09T00:29:14.100Z,9.48
2019-05-09T00:30:13.961Z,9.49
2019-05-09T00:31:13.723Z,9.52
2019-05-09T00:32:13.740Z,9.53
2019-05-09T00:33:14.295Z,9.48
2019-05-09T00:34:14.381Z,9.46
2019-05-09T00:35:14.166Z,9.46
2019-05-09T00:36:14.071Z,9.50
2019-05-09T00:37:13.593Z,9.56
2019-05-09T00:38:13.423Z,9.53
2019-05-09T00:39:13.477Z,9.46
2019-05-09T00:40:13.375Z,9.53
2019-05-09T00:41:14.003Z,9.42
2019-05-09T00:42:13.804Z,9.43
2019-05-09T00:43:13.317Z,9.42
2019-05-09T00:44:13.858Z,9.45
2019-05-09T00:45:13.385Z,9.40
2019-05-09T00:46:14.127Z,9.45
2019-05-09T00:47:13.561Z,9.42
2019-05-09T00:48:14.064Z,9.39
2019-05-09T00:49:14.022Z,9.45
2019-05-09T00:50:13.282Z,9.43
2019-05-09T00:51:14.035Z,9.40
2019-05-09T00:52:14.099Z,9.43
2019-05-09T00:53:13.798Z,9.46
2019-05-09T00:54:13.592Z,9.45
2019-05-09T00:55:13.288Z,9.45
2019-05-09T00:56:13.512Z,9.38
2019-05-09T00:57:13.775Z,9.30
2019-05-09T00:58:13.651Z,9.34
2019-05-09T00:59:13.604Z,9.42
2019-05-09T01:00:14.554Z,9.40
2019-05-09T01:01:13.342Z,9.40
2019-05-09T01:02:13.250Z,9.38
2019-05-09T01:03:14.150Z,9.42
2019-05-09T01:04:13.631Z,9.40
2019-05-09T01:05:13.301Z,9.38
2019-05-09T01:06:13.552Z,9.32
2019-05-09T01:07:13.896Z,9.38
2019-05-09T01:08:13.691Z,9.38
2019-05-09T01:09:13.770Z,9.35
2019-05-09T01:10:13.499Z,9.32
2019-05-09T01:11:15.462Z,9.40
2019-05-09T01:12:14.373Z,9.42
2019-05-09T01:13:14.154Z,9.43
2019-05-09T01:14:14.234Z,9.43
2019-05-09T01:15:13.428Z,9.46
2019-05-09T01:16:13.499Z,9.39
2019-05-09T01:17:13.709Z,9.45
2019-05-09T01:18:13.314Z,9.39
2019-05-09T01:19:14.090Z,9.42
2019-05-09T01:20:14.724Z,9.48
2019-05-09T01:21:13.472Z,9.45
2019-05-09T01:22:13.297Z,9.40
2019-05-09T01:23:14.232Z,9.39
2019-05-09T01:24:13.887Z,9.32
2019-05-09T01:25:13.416Z,9.27
2019-05-09T01:26:13.334Z,9.28
2019-05-09T01:27:14.186Z,9.31
2019-05-09T01:28:13.972Z,9.24
2019-05-09T01:29:13.745Z,9.31
2019-05-09T01:30:13.541Z,9.34
2019-05-09T01:31:13.282Z,9.24
2019-05-09T01:32:14.391Z,9.32
2019-05-09T01:33:14.243Z,9.34
2019-05-09T01:34:13.315Z,9.30
2019-05-09T01:35:13.243Z,9.27
2019-05-09T01:36:14.379Z,9.23
2019-05-09T01:37:14.046Z,9.25
2019-05-09T01:38:14.165Z,9.28
2019-05-09T01:39:13.823Z,9.30
2019-05-09T01:40:13.254Z,9.34
2019-05-09T01:41:27.136Z,9.23
2019-05-09T01:42:13.869Z,9.25
2019-05-09T01:43:13.869Z,9.18
2019-05-09T01:44:13.439Z,9.28
2019-05-09T01:45:14.105Z,9.20
2019-05-09T01:46:14.466Z,9.20
2019-05-09T01:47:14.115Z,9.21
2019-05-09T01:48:14.005Z,9.15
2019-05-09T01:50:23.194Z,9.20
2019-05-09T01:51:23.155Z,9.23
2019-05-09T01:52:23.201Z,9.18
2019-05-09T01:53:21.266Z,9.24
2019-05-09T01:54:21.202Z,9.20
2019-05-09T01:55:23.413Z,9.21
2019-05-09T01:56:23.311Z,9.16
2019-05-09T01:57:23.133Z,9.10
2019-05-09T01:58:23.135Z,9.12
2019-05-09T01:59:21.160Z,9.09
2019-05-09T02:00:21.137Z,9.16
2019-05-09T02:01:21.159Z,9.10
2019-05-09T02:02:23.422Z,9.06
2019-05-09T02:03:23.328Z,9.20
2019-05-09T02:04:21.094Z,9.10
2019-05-09T02:05:21.085Z,9.04
2019-05-09T02:06:21.095Z,9.10
2019-05-09T02:07:21.093Z,9.05
2019-05-09T02:08:23.464Z,9.10
2019-05-09T02:09:23.261Z,9.05
2019-05-09T02:10:23.091Z,9.01
2019-05-09T02:11:21.030Z,8.97
2019-05-09T02:12:21.009Z,9.05
2019-05-09T02:13:22.907Z,9.13
2019-05-09T02:14:21.043Z,9.09
2019-05-09T02:15:21.015Z,9.06
2019-05-09T02:16:23.342Z,9.21
2019-05-09T02:17:23.130Z,9.18
2019-05-09T02:18:22.995Z,9.13
2019-05-09T02:19:20.955Z,9.18
2019-05-09T02:20:20.936Z,9.18
2019-05-09T02:21:20.966Z,9.13
2019-05-09T02:22:20.902Z,9.16
2019-05-09T02:23:20.899Z,9.20
2019-05-09T02:24:23.280Z,9.25
2019-05-09T02:25:20.871Z,9.16
2019-05-09T02:26:20.871Z,9.15
2019-05-09T02:27:20.849Z,9.18
2019-05-09T02:28:20.846Z,9.06
2019-05-09T02:29:22.960Z,9.12
2019-05-09T02:30:20.835Z,9.09
2019-05-09T02:31:20.808Z,9.13
2019-05-09T02:32:23.742Z,9.04
2019-05-09T02:33:20.805Z,9.06
2019-05-09T02:34:20.797Z,9.05
2019-05-09T02:35:20.810Z,8.97
2019-05-09T02:36:20.757Z,9.09
2019-05-09T02:37:20.743Z,9.01
2019-05-09T02:38:20.732Z,8.97
2019-05-09T02:39:20.729Z,9.09
2019-05-09T02:40:20.767Z,8.93
2019-05-09T02:41:20.706Z,8.99
2019-05-09T02:42:20.694Z,8.88
2019-05-09T02:43:20.680Z,9.01
2019-05-09T02:44:20.666Z,9.04
2019-05-09T02:45:20.701Z,8.94
2019-05-09T02:46:20.681Z,8.94
2019-05-09T02:47:20.634Z,8.83
2019-05-09T02:48:20.627Z,8.84
2019-05-09T02:49:20.652Z,8.81
2019-05-09T02:50:20.633Z,8.88
2019-05-09T02:51:20.598Z,8.84
2019-05-09T02:52:20.580Z,8.86
2019-05-09T02:53:20.591Z,8.83
2019-05-09T02:54:20.561Z,8.81
2019-05-09T02:55:20.610Z,8.84
2019-05-09T02:56:20.539Z,8.81
2019-05-09T02:57:20.530Z,8.73
2019-05-09T02:58:20.728Z,8.75
2019-05-09T02:59:20.519Z,8.75
2019-05-09T03:00:20.566Z,8.72
2019-05-09T03:01:20.497Z,8.71
2019-05-09T03:02:20.490Z,8.68
2019-05-09T03:03:20.494Z,8.66
2019-05-09T03:04:20.479Z,8.51
2019-05-09T03:05:20.451Z,8.51
2019-05-09T03:06:20.470Z,8.57
2019-05-09T03:07:20.423Z,8.57
2019-05-09T03:08:20.411Z,8.54
2019-05-09T03:09:20.407Z,8.57
2019-05-09T03:10:20.397Z,8.57
2019-05-09T03:11:20.399Z,8.62
2019-05-09T03:12:30.378Z,8.57
2019-05-09T03:13:21.381Z,8.57
2019-05-09T03:14:20.358Z,8.65
2019-05-09T03:15:20.380Z,8.63
2019-05-09T03:16:20.324Z,8.66
2019-05-09T03:17:20.327Z,8.66
2019-05-09T03:18:20.326Z,8.65
2019-05-09T03:19:20.323Z,8.63
2019-05-09T03:20:20.305Z,8.71
2019-05-09T03:21:20.272Z,8.62
2019-05-09T03:22:20.268Z,8.65
2019-05-09T03:23:20.260Z,8.55
2019-05-09T03:24:20.263Z,8.60
2019-05-09T03:25:20.228Z,8.50
2019-05-09T03:26:20.276Z,8.65
2019-05-09T03:27:20.218Z,8.65
2019-05-09T03:28:20.208Z,8.62
2019-05-09T03:29:20.205Z,8.65
2019-05-09T03:30:20.985Z,8.65
2019-05-09T03:31:20.189Z,8.65
2019-05-09T03:32:20.161Z,8.65
2019-05-09T03:33:20.466Z,8.66
2019-05-09T03:34:20.133Z,8.71
2019-05-09T03:35:20.125Z,8.69
2019-05-09T03:36:20.140Z,8.63
2019-05-09T03:37:20.104Z,8.62
2019-05-09T03:38:20.151Z,8.60
2019-05-09T03:39:20.074Z,8.66
2019-05-09T03:40:20.093Z,8.63
2019-05-09T03:41:20.074Z,8.76
2019-05-09T03:42:23.015Z,8.78
2019-05-09T03:43:21.030Z,8.69
2019-05-09T03:44:20.054Z,8.71
2019-05-09T03:45:20.013Z,8.76
2019-05-09T03:46:20.030Z,8.63
2019-05-09T03:47:19.989Z,8.65
2019-05-09T03:48:19.982Z,8.71
2019-05-09T03:49:19.970Z,8.71
2019-05-09T03:50:19.961Z,8.66
2019-05-09T03:51:19.976Z,8.75
2019-05-09T03:52:19.938Z,8.72
2019-05-09T03:53:19.942Z,8.68
2019-05-09T03:54:19.919Z,8.71
2019-05-09T03:55:19.924Z,8.71
2019-05-09T03:56:19.931Z,8.69
2019-05-09T03:57:19.925Z,8.66
2019-05-09T03:58:19.871Z,8.65
2019-05-09T03:59:19.872Z,8.68
2019-05-09T04:00:19.879Z,8.63
2019-05-09T04:01:19.877Z,8.55
2019-05-09T04:02:19.844Z,8.57
2019-05-09T04:03:20.331Z,8.63
2019-05-09T04:04:19.848Z,8.60
2019-05-09T04:05:19.800Z,8.58
2019-05-09T04:06:19.805Z,8.55
2019-05-09T04:07:19.831Z,8.54
2019-05-09T04:08:19.765Z,8.45
2019-05-09T04:09:19.754Z,8.58
2019-05-09T04:10:19.813Z,8.60
2019-05-09T04:11:19.749Z,8.62
2019-05-09T04:12:19.741Z,8.60
2019-05-09T04:13:19.727Z,8.62
2019-05-09T04:14:21.622Z,8.57
2019-05-09T04:15:19.698Z,8.55
2019-05-09T04:16:19.695Z,8.55
2019-05-09T04:17:19.689Z,8.58
2019-05-09T04:18:19.660Z,8.57
2019-05-09T04:19:19.658Z,8.57
2019-05-09T04:20:19.669Z,8.57
2019-05-09T04:21:19.629Z,8.54
2019-05-09T04:22:19.671Z,8.53
2019-05-09T04:23:19.604Z,8.45
2019-05-09T04:24:19.591Z,8.40
2019-05-09T04:25:19.602Z,8.54
2019-05-09T04:26:19.572Z,8.47
2019-05-09T04:27:19.610Z,8.50
2019-05-09T04:28:19.564Z,8.44
2019-05-09T04:29:19.573Z,8.40
2019-05-09T04:30:19.529Z,8.37
2019-05-09T04:31:19.529Z,8.42
2019-05-09T04:32:19.525Z,8.42
2019-05-09T04:33:19.526Z,8.37
2019-05-09T04:34:19.496Z,8.47
2019-05-09T04:35:19.494Z,8.39
2019-05-09T04:36:19.511Z,8.37
2019-05-09T04:37:19.498Z,8.37
2019-05-09T04:38:19.445Z,8.39
2019-05-09T04:39:23.548Z,8.42
2019-05-09T04:40:19.464Z,8.42
2019-05-09T04:41:23.939Z,8.37
2019-05-09T04:42:20.444Z,8.35
2019-05-09T04:43:27.300Z,8.40
2019-05-09T04:44:21.827Z,8.39
2019-05-09T04:45:19.390Z,8.36
2019-05-09T04:46:24.179Z,8.37
2019-05-09T04:47:20.408Z,8.36
2019-05-09T04:48:23.910Z,8.35
2019-05-09T04:49:19.354Z,8.33
2019-05-09T04:50:23.175Z,8.35
2019-05-09T04:51:20.343Z,8.37
2019-05-09T04:52:19.340Z,8.30
2019-05-09T04:53:19.305Z,8.29
2019-05-09T04:54:19.302Z,8.33
2019-05-09T04:55:19.266Z,8.32
2019-05-09T04:56:19.286Z,8.37
2019-05-09T04:57:19.313Z,8.29
2019-05-09T04:58:19.491Z,8.30
2019-05-09T04:59:19.314Z,8.36
2019-05-09T05:00:19.213Z,8.39
2019-05-09T05:01:19.776Z,8.29
2019-05-09T05:02:19.188Z,8.40
2019-05-09T05:03:19.218Z,8.35
2019-05-09T05:04:19.169Z,8.37
2019-05-09T05:05:19.155Z,8.40
2019-05-09T05:06:20.750Z,8.37
2019-05-09T05:07:19.148Z,8.47
2019-05-09T05:08:19.143Z,8.37
2019-05-09T05:09:20.933Z,8.48
2019-05-09T05:10:19.104Z,8.53
2019-05-09T05:11:19.097Z,8.45
2019-05-09T05:12:19.080Z,8.47
2019-05-09T05:13:26.283Z,8.47
2019-05-09T05:14:20.062Z,8.51
2019-05-09T05:15:20.578Z,8.57
2019-05-09T05:16:19.042Z,8.48
2019-05-09T05:17:19.027Z,8.48
2019-05-09T05:18:20.308Z,8.37
2019-05-09T05:19:19.007Z,8.37
2019-05-09T05:20:19.011Z,8.44
2019-05-09T05:21:20.410Z,8.42
2019-05-09T05:22:19.016Z,8.37
2019-05-09T05:23:18.982Z,8.42
2019-05-09T05:24:18.953Z,8.48
2019-05-09T05:25:18.955Z,8.45
2019-05-09T05:26:18.933Z,8.50
2019-05-09T05:27:19.091Z,8.51
2019-05-09T05:28:18.939Z,8.54
2019-05-09T05:29:18.901Z,8.54
2019-05-09T05:30:18.998Z,8.62
2019-05-09T05:31:18.878Z,8.60
2019-05-09T05:32:18.869Z,8.55
2019-05-09T05:33:18.856Z,8.63
2019-05-09T05:34:19.526Z,8.78
2019-05-09T05:35:18.846Z,8.69
2019-05-09T05:36:18.826Z,8.78
2019-05-09T05:37:18.812Z,8.76
2019-05-09T05:38:18.803Z,8.78
2019-05-09T05:39:18.813Z,8.86
2019-05-09T05:40:18.779Z,8.90
2019-05-09T05:41:18.769Z,8.86
2019-05-09T05:42:22.013Z,8.93
2019-05-09T05:43:18.760Z,8.94
2019-05-09T05:44:18.760Z,8.93
2019-05-09T05:45:18.729Z,9.01
2019-05-09T05:46:18.717Z,9.06
2019-05-09T05:47:18.708Z,9.01
2019-05-09T05:48:18.695Z,9.09
2019-05-09T05:49:18.800Z,9.15
2019-05-09T05:50:18.672Z,9.15
2019-05-09T05:51:18.662Z,9.15
2019-05-09T05:52:18.679Z,9.16
2019-05-09T05:53:18.645Z,9.31
2019-05-09T05:54:19.533Z,9.30
2019-05-09T05:55:18.620Z,9.35
2019-05-09T05:56:18.609Z,9.38
2019-05-09T05:57:18.601Z,9.43
2019-05-09T05:58:18.590Z,9.46
2019-05-09T05:59:18.598Z,9.60
2019-05-09T06:00:18.568Z,9.57
2019-05-09T06:01:18.945Z,9.57
2019-05-09T06:02:18.546Z,9.68
2019-05-09T06:03:18.534Z,9.85
2019-05-09T06:04:27.573Z,9.81
2019-05-09T06:05:18.852Z,9.93
2019-05-09T06:06:18.535Z,9.93
2019-05-09T06:07:18.618Z,10.06
2019-05-09T06:08:18.492Z,10.14
2019-05-09T06:09:19.100Z,10.25
2019-05-09T06:10:18.901Z,10.26
2019-05-09T06:11:18.466Z,10.51
2019-05-09T06:12:18.619Z,10.63
2019-05-09T06:13:18.440Z,10.63
2019-05-09T06:14:18.793Z,10.68
2019-05-09T06:15:18.537Z,10.73
2019-05-09T06:16:22.185Z,10.70
2019-05-09T06:17:18.388Z,10.94
2019-05-09T06:18:18.606Z,10.94
2019-05-09T06:19:18.453Z,10.96
2019-05-09T06:20:18.360Z,10.99
2019-05-09T06:21:18.342Z,11.10
2019-05-09T06:22:18.563Z,11.13
2019-05-09T06:23:18.333Z,11.13
2019-05-09T06:24:18.334Z,11.09
2019-05-09T06:25:20.938Z,11.13
2019-05-09T06:26:18.831Z,11.17
2019-05-09T06:27:18.426Z,11.06
2019-05-09T06:28:18.418Z,11.16
2019-05-09T06:29:18.275Z,11.19
2019-05-09T06:30:18.245Z,11.25
2019-05-09T06:31:28.289Z,11.20
2019-05-09T06:32:18.989Z,11.31
2019-05-09T06:33:18.252Z,11.24
2019-05-09T06:34:18.891Z,11.29
2019-05-09T06:35:18.194Z,11.43
2019-05-09T06:36:18.959Z,11.38
2019-05-09T06:37:18.522Z,11.39
2019-05-09T06:38:18.864Z,11.41
2019-05-09T06:39:18.216Z,11.44
2019-05-09T06:40:21.284Z,11.46
2019-05-09T06:41:18.141Z,11.41
2019-05-09T06:42:18.385Z,11.52
2019-05-09T06:43:18.396Z,11.52
2019-05-09T06:44:20.641Z,11.47
2019-05-09T06:45:18.124Z,11.53
2019-05-09T06:46:18.395Z,11.50
2019-05-09T06:47:18.604Z,11.52
2019-05-09T06:48:18.206Z,11.49
2019-05-09T06:49:27.569Z,11.53
2019-05-09T06:50:19.048Z,11.53
2019-05-09T06:51:21.227Z,11.56
2019-05-09T06:52:18.011Z,11.52
2019-05-09T06:53:18.217Z,11.62
2019-05-09T06:54:17.992Z,11.59
2019-05-09T06:55:17.997Z,11.68
2019-05-09T06:56:17.974Z,11.65
2019-05-09T06:57:18.677Z,11.70
2019-05-09T06:58:18.426Z,11.65
2019-05-09T06:59:19.082Z,11.65
2019-05-09T07:00:17.967Z,11.74
2019-05-09T07:01:18.367Z,11.78
2019-05-09T07:02:17.913Z,11.80
2019-05-09T07:03:18.497Z,11.99
2019-05-09T07:04:18.403Z,12.08
2019-05-09T07:05:18.025Z,12.13
2019-05-09T07:06:17.908Z,12.19
2019-05-09T07:07:17.849Z,12.15
2019-05-09T07:08:18.381Z,12.27
2019-05-09T07:09:17.826Z,12.26
2019-05-09T07:10:17.909Z,12.26
2019-05-09T07:11:19.198Z,12.34
2019-05-09T07:12:18.087Z,12.30
2019-05-09T07:13:18.323Z,12.34
2019-05-09T07:14:28.372Z,12.33
2019-05-09T07:15:18.758Z,12.24
2019-05-09T07:16:18.650Z,12.29
2019-05-09T07:17:18.420Z,12.30
2019-05-09T07:18:18.417Z,12.26
2019-05-09T07:19:17.717Z,12.21
2019-05-09T07:20:18.347Z,12.27
2019-05-09T07:21:19.007Z,12.19
2019-05-09T07:22:18.596Z,12.13
2019-05-09T07:23:17.871Z,12.19
2019-05-09T07:24:18.482Z,12.15
2019-05-09T07:25:18.583Z,12.13
2019-05-09T07:26:17.887Z,12.13
2019-05-09T07:27:17.965Z,12.05
2019-05-09T07:28:18.066Z,12.04
2019-05-09T07:29:17.929Z,12.11
2019-05-09T07:30:18.082Z,12.13
2019-05-09T07:31:17.808Z,12.05
2019-05-09T07:32:18.222Z,12.16
2019-05-09T07:33:19.026Z,12.16
2019-05-09T07:34:18.465Z,12.13
2019-05-09T07:35:18.599Z,12.16
2019-05-09T07:36:18.932Z,12.21
2019-05-09T07:37:18.632Z,12.26
2019-05-09T07:38:17.849Z,12.11
2019-05-09T07:39:17.683Z,12.09
2019-05-09T07:40:18.193Z,12.16
2019-05-09T07:41:17.897Z,12.13
2019-05-09T07:42:18.121Z,12.19
2019-05-09T07:43:18.105Z,12.13
2019-05-09T07:44:18.235Z,12.13
2019-05-09T07:45:18.013Z,12.16
2019-05-09T07:46:17.772Z,12.16
2019-05-09T07:47:17.802Z,12.16
2019-05-09T07:48:18.136Z,12.26
2019-05-09T07:49:17.610Z,12.16
2019-05-09T07:50:18.903Z,12.21
2019-05-09T07:51:18.110Z,12.23
2019-05-09T07:52:18.630Z,12.21
2019-05-09T07:53:17.761Z,12.26
2019-05-09T07:54:24.685Z,12.24
2019-05-09T07:55:18.338Z,12.23
2019-05-09T07:56:18.694Z,12.30
2019-05-09T07:57:18.207Z,12.37
2019-05-09T07:58:18.667Z,12.26
2019-05-09T07:59:18.104Z,12.34
2019-05-09T08:00:18.386Z,12.31
2019-05-09T08:01:19.021Z,12.34
2019-05-09T08:02:17.763Z,12.38
2019-05-09T08:03:18.103Z,12.33
2019-05-09T08:04:18.283Z,12.29
2019-05-09T08:05:17.461Z,12.24
2019-05-09T08:06:18.412Z,12.29
2019-05-09T08:07:17.645Z,12.29
2019-05-09T08:08:18.580Z,12.30
2019-05-09T08:09:18.708Z,12.23
2019-05-09T08:10:17.645Z,12.29
2019-05-09T08:11:17.998Z,12.37
2019-05-09T08:12:17.946Z,12.29
2019-05-09T08:13:18.239Z,12.37
2019-05-09T08:14:17.690Z,12.39
2019-05-09T08:15:20.031Z,12.42
2019-05-09T08:16:18.640Z,12.33
2019-05-09T08:17:18.143Z,12.39
2019-05-09T08:18:17.509Z,12.37
2019-05-09T08:19:18.072Z,12.45
2019-05-09T08:20:17.604Z,12.34
2019-05-09T08:21:18.048Z,12.42
2019-05-09T08:22:23.097Z,12.44
2019-05-09T08:23:18.142Z,12.41
2019-05-09T08:24:18.315Z,12.42
2019-05-09T08:25:18.319Z,12.44
2019-05-09T08:26:18.908Z,12.46
2019-05-09T08:27:17.573Z,12.54
2019-05-09T08:28:17.714Z,12.51
2019-05-09T08:29:19.548Z,12.54
2019-05-09T08:30:18.025Z,12.46
2019-05-09T08:31:17.837Z,12.64
2019-05-09T08:32:18.069Z,12.56
2019-05-09T08:33:18.403Z,12.63
2019-05-09T08:34:18.703Z,12.62
2019-05-09T08:35:18.301Z,12.70
2019-05-09T08:36:18.036Z,12.71
2019-05-09T08:37:17.570Z,12.70
2019-05-09T08:38:17.917Z,12.69
2019-05-09T08:39:20.182Z,12.75
2019-05-09T08:40:21.084Z,12.71
2019-05-09T08:41:18.662Z,12.66
2019-05-09T08:42:18.047Z,12.60
2019-05-09T08:43:19.538Z,12.66
2019-05-09T08:44:18.641Z,12.77
2019-05-09T08:45:26.886Z,12.78
2019-05-09T08:46:18.241Z,12.74
2019-05-09T08:47:18.473Z,12.78
2019-05-09T08:48:18.416Z,12.82
2019-05-09T08:49:18.243Z,12.79
2019-05-09T08:50:17.594Z,12.71
2019-05-09T08:51:18.021Z,12.74
2019-05-09T08:52:19.544Z,12.77
2019-05-09T08:53:18.805Z,12.77
2019-05-09T08:54:18.413Z,12.82
2019-05-09T08:55:17.494Z,12.81
2019-05-09T08:56:17.829Z,12.77
2019-05-09T08:57:18.202Z,12.78
2019-05-09T08:58:19.584Z,12.89
2019-05-09T08:59:18.328Z,12.87
2019-05-09T09:00:18.890Z,12.85
2019-05-09T09:01:27.517Z,12.85
2019-05-09T09:02:21.992Z,12.88
2019-05-09T09:03:18.519Z,12.96
2019-05-09T09:04:18.957Z,12.93
2019-05-09T09:05:18.686Z,12.95
2019-05-09T09:06:18.346Z,12.99
2019-05-09T09:07:18.712Z,13.07
2019-05-09T09:08:18.315Z,13.14
2019-05-09T09:09:17.991Z,13.18
2019-05-09T09:10:18.636Z,13.18
2019-05-09T09:11:18.757Z,13.22
2019-05-09T09:12:27.035Z,13.32
2019-05-09T09:13:17.634Z,13.32
2019-05-09T09:14:18.508Z,13.29
2019-05-09T09:15:18.043Z,13.33
2019-05-09T09:16:21.626Z,13.32
2019-05-09T09:17:18.772Z,13.29
2019-05-09T09:18:17.984Z,13.32
2019-05-09T09:19:17.905Z,13.36
2019-05-09T09:20:18.206Z,13.36
2019-05-09T09:21:18.340Z,13.38
2019-05-09T09:22:17.988Z,13.40
2019-05-09T09:23:18.096Z,13.46
2019-05-09T09:24:17.679Z,13.46
2019-05-09T09:25:18.383Z,13.33
2019-05-09T09:26:18.380Z,13.38
2019-05-09T09:27:18.250Z,13.33
2019-05-09T09:28:18.250Z,13.32
2019-05-09T09:29:17.813Z,13.22
2019-05-09T09:30:21.692Z,13.33
2019-05-09T09:31:18.034Z,13.27
2019-05-09T09:32:18.682Z,13.29
2019-05-09T09:33:17.605Z,13.18
2019-05-09T09:34:18.140Z,13.22
2019-05-09T09:35:18.502Z,13.14
2019-05-09T09:36:17.877Z,13.20
2019-05-09T09:37:18.555Z,13.17
2019-05-09T09:38:17.678Z,13.17
2019-05-09T09:39:18.347Z,13.17
2019-05-09T09:40:17.707Z,13.21
2019-05-09T09:41:18.159Z,13.20
2019-05-09T09:42:19.459Z,13.18
2019-05-09T09:43:17.645Z,13.22
2019-05-09T09:44:18.221Z,13.38
2019-05-09T09:45:18.427Z,13.37
2019-05-09T09:46:18.151Z,13.38
2019-05-09T09:47:22.385Z,13.44
2019-05-09T09:48:18.130Z,13.38
2019-05-09T09:49:18.074Z,13.47
2019-05-09T09:50:17.708Z,13.43
2019-05-09T09:51:18.344Z,13.47
2019-05-09T09:52:18.519Z,13.46
2019-05-09T09:53:17.806Z,13.51
2019-05-09T09:54:18.635Z,13.47
2019-05-09T09:55:18.290Z,13.52
2019-05-09T09:56:17.847Z,13.47
2019-05-09T09:57:18.827Z,13.47
2019-05-09T09:58:18.699Z,13.47
2019-05-09T09:59:16.015Z,13.47
2019-05-09T10:00:18.081Z,13.47
2019-05-09T10:01:18.110Z,13.33
2019-05-09T10:02:15.984Z,13.49
2019-05-09T10:03:18.518Z,13.43
2019-05-09T10:04:23.538Z,13.46
2019-05-09T10:05:18.311Z,13.41
2019-05-09T10:06:15.918Z,13.44
2019-05-09T10:07:15.930Z,13.41
2019-05-09T10:08:18.139Z,13.32
2019-05-09T10:09:17.508Z,13.33
2019-05-09T10:10:18.400Z,13.43
2019-05-09T10:11:17.934Z,13.37
2019-05-09T10:12:18.025Z,13.37
2019-05-09T10:13:18.300Z,13.33
2019-05-09T10:14:18.510Z,13.24
2019-05-09T10:15:15.821Z,13.24
2019-05-09T10:16:28.594Z,13.25
2019-05-09T10:17:17.940Z,13.25
2019-05-09T10:18:18.106Z,13.17
2019-05-09T10:19:15.774Z,13.25
2019-05-09T10:20:18.014Z,13.20
2019-05-09T10:21:15.754Z,13.25
2019-05-09T10:22:22.944Z,13.30
2019-05-09T10:23:18.806Z,13.15
2019-05-09T10:24:17.495Z,13.17
2019-05-09T10:25:18.130Z,13.18
2019-05-09T10:26:17.785Z,13.20
2019-05-09T10:27:18.284Z,13.21
2019-05-09T10:28:21.591Z,13.17
2019-05-09T10:29:17.719Z,13.22
2019-05-09T10:30:17.896Z,13.15
2019-05-09T10:31:15.656Z,13.18
2019-05-09T10:32:17.917Z,13.18
2019-05-09T10:33:17.559Z,13.27
2019-05-09T10:34:17.648Z,13.25
2019-05-09T10:35:17.664Z,13.15
2019-05-09T10:36:15.607Z,13.27
2019-05-09T10:37:15.585Z,13.21
2019-05-09T10:38:18.180Z,13.32
2019-05-09T10:39:15.564Z,13.27
2019-05-09T10:40:15.551Z,13.21
2019-05-09T10:41:15.544Z,13.32
2019-05-09T10:42:15.535Z,13.43
2019-05-09T10:43:30.700Z,13.44
2019-05-09T10:44:18.045Z,13.55
2019-05-09T10:45:17.805Z,13.52
2019-05-09T10:46:19.122Z,13.67
2019-05-09T10:47:15.479Z,13.65
2019-05-09T10:48:15.477Z,13.69
2019-05-09T10:49:15.474Z,13.73
2019-05-09T10:50:18.306Z,13.69
2019-05-09T10:51:15.430Z,13.69
2019-05-09T10:52:18.054Z,13.81
2019-05-09T10:53:17.844Z,13.83
2019-05-09T10:54:15.418Z,13.88
2019-05-09T10:55:17.711Z,13.88
2019-05-09T10:56:15.378Z,13.84
2019-05-09T10:57:15.367Z,13.89
2019-05-09T10:58:15.357Z,13.84
2019-05-09T10:59:15.364Z,13.84
2019-05-09T11:00:15.336Z,13.95
2019-05-09T11:01:15.330Z,13.76
2019-05-09T11:02:17.468Z,13.91
2019-05-09T11:03:17.903Z,13.87
2019-05-09T11:04:17.869Z,13.89
2019-05-09T11:05:15.280Z,13.96
2019-05-09T11:06:18.028Z,13.92
2019-05-09T11:07:15.295Z,13.89
2019-05-09T11:08:15.250Z,13.91
2019-05-09T11:09:18.019Z,14.04
2019-05-09T11:10:25.936Z,14.01
2019-05-09T11:11:18.155Z,13.99
2019-05-09T11:12:15.204Z,14.04
2019-05-09T11:13:15.193Z,14.06
2019-05-09T11:14:31.625Z,14.20
2019-05-09T11:15:17.745Z,14.31
2019-05-09T11:16:15.165Z,14.27
2019-05-09T11:17:19.267Z,14.38
2019-05-09T11:18:18.385Z,14.39
2019-05-09T11:19:15.134Z,14.43
2019-05-09T11:20:15.137Z,14.43
2019-05-09T11:21:15.109Z,14.46
2019-05-09T11:22:15.106Z,14.49
2019-05-09T11:23:15.088Z,14.57
2019-05-09T11:24:15.096Z,14.57
2019-05-09T11:25:15.084Z,14.61
2019-05-09T11:26:17.672Z,14.72
2019-05-09T11:27:15.048Z,14.75
2019-05-09T11:28:15.712Z,14.65
2019-05-09T11:29:15.027Z,14.64
2019-05-09T11:30:15.037Z,14.64
2019-05-09T11:31:18.030Z,14.56
2019-05-09T11:32:14.990Z,14.64
2019-05-09T11:33:14.979Z,14.68
2019-05-09T11:34:14.971Z,14.74
2019-05-09T11:35:14.983Z,14.71
2019-05-09T11:36:17.454Z,14.88
2019-05-09T11:37:15.943Z,14.91
2019-05-09T11:38:17.655Z,15.05
2019-05-09T11:39:34.117Z,15.06
2019-05-09T11:40:15.976Z,15.08
2019-05-09T11:41:15.113Z,15.20
2019-05-09T11:42:14.895Z,15.08
2019-05-09T11:43:14.877Z,15.01
2019-05-09T11:44:14.861Z,15.08
2019-05-09T11:45:14.851Z,15.11
2019-05-09T11:46:14.858Z,15.02
2019-05-09T11:47:28.568Z,14.86
2019-05-09T11:48:15.819Z,14.88
2019-05-09T11:49:14.813Z,14.94
2019-05-09T11:50:14.802Z,15.08
2019-05-09T11:51:14.805Z,15.33
2019-05-09T11:52:14.783Z,15.45
2019-05-09T11:53:14.764Z,15.54
2019-05-09T11:54:17.259Z,15.61
2019-05-09T11:55:29.783Z,15.70
2019-05-09T11:56:17.943Z,15.76
2019-05-09T11:57:14.737Z,15.74
2019-05-09T11:58:14.711Z,15.78
2019-05-09T11:59:14.702Z,15.88
2019-05-09T12:00:14.699Z,15.97
2019-05-09T12:01:14.697Z,16.04
2019-05-09T12:02:14.667Z,16.09
2019-05-09T12:03:14.659Z,16.25
2019-05-09T12:04:14.645Z,16.23
2019-05-09T12:05:14.639Z,16.26
2019-05-09T12:06:16.190Z,16.33
2019-05-09T12:07:14.677Z,16.27
2019-05-09T12:08:14.890Z,16.22
2019-05-09T12:09:15.069Z,16.15
2019-05-09T12:10:14.591Z,16.09
2019-05-09T12:11:14.576Z,16.26
2019-05-09T12:12:14.759Z,16.25
2019-05-09T12:13:14.558Z,16.22
2019-05-09T12:14:14.540Z,16.15
2019-05-09T12:15:14.535Z,16.16
2019-05-09T12:16:14.518Z,16.12
2019-05-09T12:17:14.536Z,16.04
2019-05-09T12:18:14.494Z,16.06
2019-05-09T12:19:14.483Z,16.01
2019-05-09T12:20:14.473Z,15.92
2019-05-09T12:21:14.464Z,15.99
2019-05-09T12:22:14.479Z,16.01
2019-05-09T12:23:14.441Z,15.88
2019-05-09T12:24:14.434Z,15.86
2019-05-09T12:25:14.419Z,15.79
2019-05-09T12:26:14.421Z,15.75
2019-05-09T12:27:14.417Z,15.76
2019-05-09T12:28:14.387Z,15.84
2019-05-09T12:29:14.378Z,15.78
2019-05-09T12:30:14.367Z,15.86
2019-05-09T12:31:14.389Z,15.78
2019-05-09T12:32:14.346Z,15.88
2019-05-09T12:33:14.335Z,15.89
2019-05-09T12:34:14.330Z,15.67
2019-05-09T12:35:14.313Z,15.51
2019-05-09T12:36:14.336Z,15.64
2019-05-09T12:37:14.291Z,15.57
2019-05-09T12:38:14.295Z,15.56
2019-05-09T12:39:14.274Z,15.52
2019-05-09T12:40:14.287Z,15.60
2019-05-09T12:41:14.248Z,15.68
2019-05-09T12:42:14.325Z,15.74
2019-05-09T12:43:14.239Z,15.76
2019-05-09T12:44:14.224Z,15.74
2019-05-09T12:45:14.203Z,15.76
2019-05-09T12:46:14.215Z,15.74
2019-05-09T12:47:14.279Z,15.75
2019-05-09T12:48:15.806Z,15.67
2019-05-09T12:49:14.160Z,15.68
2019-05-09T12:50:14.180Z,15.64
2019-05-09T12:51:14.163Z,15.66
2019-05-09T12:52:14.130Z,15.57
2019-05-09T12:53:14.169Z,15.49
2019-05-09T12:54:14.107Z,15.49
2019-05-09T12:55:14.100Z,15.61
2019-05-09T12:56:14.085Z,15.52
2019-05-09T12:57:14.100Z,15.42
2019-05-09T12:58:14.132Z,15.38
2019-05-09T12:59:14.054Z,15.39
2019-05-09T13:00:14.042Z,15.45
2019-05-09T13:01:14.031Z,15.41
2019-05-09T13:02:14.191Z,15.30
2019-05-09T13:03:14.010Z,15.24
2019-05-09T13:04:14.009Z,15.24
2019-05-09T13:05:13.987Z,15.21